createdAt,value
2023-03-05T00:00:08.187Z,102056.59
2023-03-05T00:00:44.971Z,102065.56
2023-03-05T00:01:25.297Z,102062.84
2023-03-05T00:01:57.118Z,102059.47
2023-03-05T00:02:28.775Z,102063.34
2023-03-05T00:03:00.509Z,102058.94
2023-03-05T00:03:32.135Z,102061.56
2023-03-05T00:04:05.509Z,102068.91
2023-03-05T00:04:37.102Z,102058.22
2023-03-05T00:05:09.238Z,102061.84
2023-03-05T00:05:40.887Z,102052.97
2023-03-05T00:06:12.580Z,102058.94
2023-03-05T00:06:44.234Z,102055.47
2023-03-05T00:07:15.917Z,102061.84
2023-03-05T00:07:48.948Z,102061.56
2023-03-05T00:08:20.618Z,102056.84
2023-03-05T00:08:53.523Z,102056.56
2023-03-05T00:09:25.203Z,102056.56
2023-03-05T00:10:01.766Z,102067.09
2023-03-05T00:10:33.349Z,102055.59
2023-03-05T00:11:07.773Z,102053.66
2023-03-05T00:11:39.744Z,102054.63
2023-03-05T00:12:11.523Z,102057.97
2023-03-05T00:12:43.052Z,102055.75
2023-03-05T00:13:14.610Z,102056.44
2023-03-05T00:13:46.730Z,102057.13
2023-03-05T00:14:18.374Z,102058.22
2023-03-05T00:14:49.985Z,102051.03
2023-03-05T00:15:21.796Z,102056.72
2023-03-05T00:15:53.670Z,102050.75
2023-03-05T00:16:28.720Z,102052.69
2023-03-05T00:17:00.378Z,102051.31
2023-03-05T00:17:31.991Z,102051.31
2023-03-05T00:18:03.811Z,102048.25
2023-03-05T00:18:35.732Z,102049.38
2023-03-05T00:19:07.750Z,102044.25
2023-03-05T00:19:39.298Z,102045.91
2023-03-05T00:20:11.302Z,102047.72
2023-03-05T00:20:43.056Z,102044.78
2023-03-05T00:21:35.473Z,102043.84
2023-03-05T00:22:07.685Z,102043.13
2023-03-05T00:22:39.227Z,102039.97
2023-03-05T00:23:10.790Z,102042.75
2023-03-05T00:23:42.345Z,102044.13
2023-03-05T00:24:18.291Z,102051.31
2023-03-05T00:24:53.223Z,102045.25
2023-03-05T00:25:24.865Z,102050.50
2023-03-05T00:25:56.441Z,102044.66
2023-03-05T00:26:28.942Z,102045.34
2023-03-05T00:27:00.490Z,102045.06
2023-03-05T00:27:32.079Z,102046.88
2023-03-05T00:28:04.202Z,102044.94
2023-03-05T00:28:36.011Z,102047.16
2023-03-05T00:29:08.537Z,102039.00
2023-03-05T00:29:40.086Z,102048.56
2023-03-05T00:30:13.587Z,102047.19
2023-03-05T00:30:45.112Z,102043.84
2023-03-05T00:31:17.878Z,102044.41
2023-03-05T00:31:49.662Z,102046.91
2023-03-05T00:32:21.247Z,102039.44
2023-03-05T00:32:52.844Z,102041.38
2023-03-05T00:33:24.371Z,102039.44
2023-03-05T00:33:57.740Z,102043.03
2023-03-05T00:34:29.642Z,102038.03
2023-03-05T00:35:01.266Z,102032.19
2023-03-05T00:35:39.452Z,102033.44
2023-03-05T00:36:11.182Z,102031.91
2023-03-05T00:36:44.483Z,102035.25
2023-03-05T00:37:17.176Z,102033.31
2023-03-05T00:37:48.735Z,102030.13
2023-03-05T00:38:20.301Z,102032.34
2023-03-05T00:38:52.448Z,102034.28
2023-03-05T00:39:24.063Z,102033.31
2023-03-05T00:39:55.638Z,102032.34
2023-03-05T00:40:27.175Z,102034.69
2023-03-05T00:40:58.761Z,102040.09
2023-03-05T00:41:30.395Z,102030.25
2023-03-05T00:42:02.382Z,102033.84
2023-03-05T00:42:38.557Z,102033.84
2023-03-05T00:43:10.744Z,102032.88
2023-03-05T00:43:42.573Z,102030.53
2023-03-05T00:44:14.123Z,102031.09
2023-03-05T00:44:45.668Z,102031.78
2023-03-05T00:45:17.331Z,102023.88
2023-03-05T00:45:48.868Z,102030.53
2023-03-05T00:46:20.581Z,102025.97
2023-03-05T00:46:52.253Z,102027.22
2023-03-05T00:47:23.894Z,102026.94
2023-03-05T00:47:55.637Z,102034.69
2023-03-05T00:48:27.813Z,102035.25
2023-03-05T00:49:00.036Z,102024.03
2023-03-05T00:49:31.576Z,102027.63
2023-03-05T00:50:04.403Z,102021.38
2023-03-05T00:50:37.174Z,102021.66
2023-03-05T00:51:09.312Z,102029.97
2023-03-05T00:51:41.327Z,102025.03
2023-03-05T00:52:12.896Z,102027.38
2023-03-05T00:52:44.638Z,102028.47
2023-03-05T00:53:16.186Z,102019.88
2023-03-05T00:53:47.853Z,102027.50
2023-03-05T00:54:19.561Z,102019.75
2023-03-05T00:54:51.097Z,102019.47
2023-03-05T00:55:22.896Z,102019.44
2023-03-05T00:55:54.597Z,102019.19
2023-03-05T00:56:26.176Z,102017.22
2023-03-05T00:56:57.882Z,102020.00
2023-03-05T00:57:29.456Z,102023.22
2023-03-05T00:58:01.041Z,102018.66
2023-03-05T00:58:32.818Z,102017.25
2023-03-05T00:59:04.381Z,102012.53
2023-03-05T00:59:36.974Z,102013.91
2023-03-05T01:00:09.537Z,102012.94
2023-03-05T01:00:41.477Z,102010.03
2023-03-05T01:01:13.478Z,102015.03
2023-03-05T01:01:45.244Z,102011.97
2023-03-05T01:02:16.946Z,102010.59
2023-03-05T01:02:48.535Z,102009.91
2023-03-05T01:03:20.213Z,102014.06
2023-03-05T01:03:56.331Z,102010.03
2023-03-05T01:04:27.948Z,102010.03
2023-03-05T01:04:59.551Z,102006.97
2023-03-05T01:05:31.348Z,102012.25
2023-03-05T01:06:08.441Z,102006.56
2023-03-05T01:06:44.591Z,102003.66
2023-03-05T01:07:17.438Z,102010.59
2023-03-05T01:07:52.720Z,102004.34
2023-03-05T01:08:24.717Z,102007.81
2023-03-05T01:08:56.707Z,102006.16
2023-03-05T01:09:28.544Z,102003.25
2023-03-05T01:10:00.612Z,101995.34
2023-03-05T01:10:32.561Z,102005.59
2023-03-05T01:11:05.124Z,102009.47
2023-03-05T01:11:36.739Z,102005.59
2023-03-05T01:12:08.576Z,102000.63
2023-03-05T01:12:40.472Z,101996.88
2023-03-05T01:13:12.017Z,102005.88
2023-03-05T01:13:43.657Z,102002.41
2023-03-05T01:14:15.203Z,101999.22
2023-03-05T01:14:46.812Z,102004.34
2023-03-05T01:15:18.438Z,101998.13
2023-03-05T01:15:51.074Z,101998.69
2023-03-05T01:16:22.884Z,101997.28
2023-03-05T01:16:54.776Z,101993.13
2023-03-05T01:17:26.430Z,102000.06
2023-03-05T01:17:58.031Z,101997.16
2023-03-05T01:18:29.637Z,101995.34
2023-03-05T01:19:01.177Z,101994.00
2023-03-05T01:19:32.748Z,101994.28
2023-03-05T01:20:05.704Z,101988.31
2023-03-05T01:20:37.910Z,101989.97
2023-03-05T01:21:09.772Z,101986.09
2023-03-05T01:21:42.220Z,101984.84
2023-03-05T01:22:14.114Z,101988.16
2023-03-05T01:22:45.678Z,101985.94
2023-03-05T01:23:17.405Z,101986.91
2023-03-05T01:23:49.130Z,101992.03
2023-03-05T01:24:21.650Z,101982.91
2023-03-05T01:24:53.309Z,101988.31
2023-03-05T01:25:25.388Z,101985.13
2023-03-05T01:25:59.321Z,101982.63
2023-03-05T01:26:31.677Z,101982.91
2023-03-05T01:27:03.258Z,101982.91
2023-03-05T01:27:35.110Z,101980.53
2023-03-05T01:28:07.044Z,101979.28
2023-03-05T01:28:39.851Z,101980.13
2023-03-05T01:29:11.982Z,101983.75
2023-03-05T01:29:43.511Z,101980.69
2023-03-05T01:30:15.789Z,101974.59
2023-03-05T01:30:47.382Z,101976.66
2023-03-05T01:31:19.123Z,101973.47
2023-03-05T01:31:50.898Z,101982.09
2023-03-05T01:32:22.547Z,101972.09
2023-03-05T01:32:55.292Z,101977.34
2023-03-05T01:33:26.846Z,101975.97
2023-03-05T01:34:00.199Z,101979.28
2023-03-05T01:34:31.930Z,101974.03
2023-03-05T01:35:05.539Z,101970.97
2023-03-05T01:35:37.240Z,101975.41
2023-03-05T01:36:14.782Z,101964.03
2023-03-05T01:36:46.563Z,101971.09
2023-03-05T01:37:18.117Z,101972.09
2023-03-05T01:37:49.774Z,101970.97
2023-03-05T01:38:21.300Z,101967.94
2023-03-05T01:38:53.018Z,101970.81
2023-03-05T01:39:25.409Z,101965.47
2023-03-05T01:39:57.056Z,101964.19
2023-03-05T01:40:30.128Z,101956.84
2023-03-05T01:41:01.750Z,101959.91
2023-03-05T01:41:34.078Z,101961.41
2023-03-05T01:42:06.224Z,101961.56
2023-03-05T01:42:37.755Z,101959.75
2023-03-05T01:43:12.097Z,101961.84
2023-03-05T01:43:44.374Z,101956.56
2023-03-05T01:44:27.983Z,101958.22
2023-03-05T01:45:02.743Z,101955.47
2023-03-05T01:45:34.455Z,101962.25
2023-03-05T01:46:29.137Z,101956.00
2023-03-05T01:47:00.805Z,101958.50
2023-03-05T01:47:32.353Z,101948.94
2023-03-05T01:48:04.192Z,101952.00
2023-03-05T01:48:35.763Z,101958.78
2023-03-05T01:49:13.329Z,101947.88
2023-03-05T01:49:44.907Z,101949.78
2023-03-05T01:50:19.081Z,101951.03
2023-03-05T01:50:50.678Z,101948.81
2023-03-05T01:51:25.920Z,101946.44
2023-03-05T01:52:17.649Z,101938.84
2023-03-05T01:53:00.302Z,101942.44
2023-03-05T01:53:32.001Z,101935.38
2023-03-05T01:54:05.984Z,101943.00
2023-03-05T01:54:41.774Z,101942.59
2023-03-05T01:55:26.773Z,101943.00
2023-03-05T01:55:58.431Z,101939.53
2023-03-05T01:56:30.996Z,101945.50
2023-03-05T01:57:09.271Z,101936.38
2023-03-05T01:57:46.676Z,101941.50
2023-03-05T01:58:18.632Z,101938.31
2023-03-05T01:58:51.290Z,101937.06
2023-03-05T01:59:23.542Z,101939.41
2023-03-05T01:59:58.344Z,101938.84
2023-03-05T02:00:33.950Z,101937.03
2023-03-05T02:01:05.795Z,101937.72
2023-03-05T02:01:40.481Z,101933.56
2023-03-05T02:02:13.025Z,101935.53
2023-03-05T02:02:45.636Z,101929.16
2023-03-05T02:03:17.213Z,101936.09
2023-03-05T02:03:48.850Z,101930.53
2023-03-05T02:04:22.220Z,101934.84
2023-03-05T02:05:03.760Z,101927.63
2023-03-05T02:05:38.146Z,101929.28
2023-03-05T02:06:10.775Z,101931.38
2023-03-05T02:06:43.047Z,101932.47
2023-03-05T02:07:15.995Z,101930.25
2023-03-05T02:07:47.805Z,101934.41
2023-03-05T02:08:21.781Z,101930.41
2023-03-05T02:08:53.430Z,101931.91
2023-03-05T02:09:27.027Z,101925.81
2023-03-05T02:09:58.594Z,101926.53
2023-03-05T02:10:53.583Z,101929.44
2023-03-05T02:11:28.293Z,101930.81
2023-03-05T02:11:59.848Z,101931.09
2023-03-05T02:12:31.399Z,101929.72
2023-03-05T02:13:07.039Z,101922.53
2023-03-05T02:13:40.717Z,101928.06
2023-03-05T02:14:12.303Z,101924.88
2023-03-05T02:14:48.224Z,101923.75
2023-03-05T02:15:20.192Z,101922.25
2023-03-05T02:15:53.415Z,101927.22
2023-03-05T02:16:25.100Z,101913.38
2023-03-05T02:16:56.928Z,101924.16
2023-03-05T02:17:28.604Z,101915.88
2023-03-05T02:18:01.366Z,101921.69
2023-03-05T02:18:32.978Z,101919.19
2023-03-05T02:19:06.797Z,101917.81
2023-03-05T02:19:48.567Z,101918.91
2023-03-05T02:20:25.906Z,101915.84
2023-03-05T02:20:57.522Z,101912.81
2023-03-05T02:21:37.072Z,101909.50
2023-03-05T02:22:14.864Z,101901.47
2023-03-05T02:22:46.634Z,101916.44
2023-03-05T02:23:20.128Z,101904.66
2023-03-05T02:23:51.655Z,101910.19
2023-03-05T02:24:35.689Z,101904.50
2023-03-05T02:25:23.148Z,101910.88
2023-03-05T02:25:55.295Z,101905.19
2023-03-05T02:26:26.951Z,101911.03
2023-03-05T02:26:58.781Z,101900.34
2023-03-05T02:27:35.097Z,101907.00
2023-03-05T02:28:12.400Z,101909.50
2023-03-05T02:28:50.120Z,101906.97
2023-03-05T02:29:21.666Z,101905.63
2023-03-05T02:29:53.320Z,101906.72
2023-03-05T02:30:25.183Z,101909.22
2023-03-05T02:30:56.767Z,101905.63
2023-03-05T02:31:28.409Z,101903.84
2023-03-05T02:32:01.216Z,101902.56
2023-03-05T02:32:33.027Z,101908.38
2023-03-05T02:33:05.314Z,101902.19
2023-03-05T02:33:37.137Z,101900.38
2023-03-05T02:34:10.601Z,101898.97
2023-03-05T02:34:42.277Z,101896.78
2023-03-05T02:35:14.367Z,101894.28
2023-03-05T02:35:46.741Z,101898.97
2023-03-05T02:36:18.945Z,101892.03
2023-03-05T02:36:50.801Z,101893.84
2023-03-05T02:37:22.798Z,101890.53
2023-03-05T02:37:56.456Z,101883.47
2023-03-05T02:38:28.089Z,101890.13
2023-03-05T02:38:59.737Z,101894.25
2023-03-05T02:39:31.960Z,101889.84
2023-03-05T02:40:03.842Z,101887.91
2023-03-05T02:40:35.730Z,101890.69
2023-03-05T02:41:07.326Z,101886.09
2023-03-05T02:41:39.382Z,101893.31
2023-03-05T02:42:11.041Z,101891.91
2023-03-05T02:42:43.588Z,101886.38
2023-03-05T02:43:16.952Z,101885.25
2023-03-05T02:43:48.705Z,101887.47
2023-03-05T02:44:20.239Z,101878.19
2023-03-05T02:44:51.848Z,101886.25
2023-03-05T02:45:23.429Z,101885.97
2023-03-05T02:45:55.183Z,101887.34
2023-03-05T02:46:26.923Z,101884.28
2023-03-05T02:46:58.613Z,101884.56
2023-03-05T02:47:30.380Z,101882.91
2023-03-05T02:48:01.993Z,101884.84
2023-03-05T02:48:34.080Z,101885.13
2023-03-05T02:49:05.699Z,101880.41
2023-03-05T02:49:37.298Z,101875.84
2023-03-05T02:50:10.436Z,101881.78
2023-03-05T02:50:43.073Z,101878.47
2023-03-05T02:51:16.200Z,101875.44
2023-03-05T02:51:49.145Z,101881.41
2023-03-05T02:52:23.308Z,101876.81
2023-03-05T02:52:56.143Z,101877.38
2023-03-05T02:53:27.677Z,101879.03
2023-03-05T02:53:59.262Z,101884.44
2023-03-05T02:54:32.591Z,101875.44
2023-03-05T02:55:04.775Z,101877.09
2023-03-05T02:55:36.310Z,101872.38
2023-03-05T02:56:07.863Z,101875.97
2023-03-05T02:56:40.642Z,101875.72
2023-03-05T02:57:12.228Z,101878.75
2023-03-05T02:57:43.933Z,101874.59
2023-03-05T02:58:16.664Z,101870.72
2023-03-05T02:58:48.199Z,101881.09
2023-03-05T02:59:19.720Z,101870.31
2023-03-05T02:59:51.455Z,101874.31
2023-03-05T03:00:23.270Z,101872.38
2023-03-05T03:00:54.881Z,101870.41
2023-03-05T03:01:28.469Z,101873.47
2023-03-05T03:02:00.366Z,101869.34
2023-03-05T03:02:32.279Z,101861.31
2023-03-05T03:03:03.960Z,101864.34
2023-03-05T03:03:36.283Z,101874.03
2023-03-05T03:04:07.790Z,101868.22
2023-03-05T03:04:39.344Z,101865.44
2023-03-05T03:05:10.935Z,101861.16
2023-03-05T03:05:42.548Z,101858.53
2023-03-05T03:06:14.118Z,101855.50
2023-03-05T03:06:45.635Z,101859.78
2023-03-05T03:07:17.193Z,101858.22
2023-03-05T03:07:49.276Z,101858.53
2023-03-05T03:08:20.842Z,101855.19
2023-03-05T03:08:52.456Z,101859.34
2023-03-05T03:09:24.057Z,101856.56
2023-03-05T03:09:55.746Z,101851.88
2023-03-05T03:10:27.382Z,101856.88
2023-03-05T03:11:08.553Z,101852.81
2023-03-05T03:11:40.085Z,101845.78
2023-03-05T03:12:12.298Z,101847.72
2023-03-05T03:12:45.053Z,101849.94
2023-03-05T03:13:16.631Z,101848.56
2023-03-05T03:13:48.196Z,101850.22
2023-03-05T03:14:20.361Z,101848.81
2023-03-05T03:14:51.935Z,101850.91
2023-03-05T03:15:23.605Z,101842.75
2023-03-05T03:16:06.549Z,101843.59
2023-03-05T03:16:38.178Z,101849.53
2023-03-05T03:17:12.529Z,101847.44
2023-03-05T03:17:44.821Z,101846.06
2023-03-05T03:18:16.401Z,101852.44
2023-03-05T03:18:48.917Z,101843.31
2023-03-05T03:19:20.586Z,101842.03
2023-03-05T03:19:52.179Z,101846.34
2023-03-05T03:20:24.282Z,101834.72
2023-03-05T03:20:55.783Z,101836.38
2023-03-05T03:21:27.396Z,101840.38
2023-03-05T03:21:59.009Z,101839.41
2023-03-05T03:22:30.546Z,101840.09
2023-03-05T03:23:02.431Z,101838.16
2023-03-05T03:23:34.493Z,101833.75
2023-03-05T03:24:06.365Z,101834.72
2023-03-05T03:24:39.402Z,101825.47
2023-03-05T03:25:14.650Z,101833.06
2023-03-05T03:25:46.169Z,101834.72
2023-03-05T03:26:18.010Z,101831.56
2023-03-05T03:26:50.007Z,101828.09
2023-03-05T03:27:21.961Z,101831.13
2023-03-05T03:27:53.510Z,101824.88
2023-03-05T03:28:25.350Z,101830.16
2023-03-05T03:28:57.635Z,101822.53
2023-03-05T03:29:29.637Z,101822.53
2023-03-05T03:30:04.663Z,101829.34
2023-03-05T03:30:36.215Z,101829.06
2023-03-05T03:31:08.119Z,101814.25
2023-03-05T03:31:41.321Z,101821.16
2023-03-05T03:32:13.000Z,101818.94
2023-03-05T03:32:44.835Z,101822.94
2023-03-05T03:33:18.165Z,101822.53
2023-03-05T03:33:49.860Z,101817.28
2023-03-05T03:34:21.511Z,101818.00
2023-03-05T03:34:53.082Z,101822.81
2023-03-05T03:35:24.677Z,101812.56
2023-03-05T03:35:56.377Z,101815.91
2023-03-05T03:36:28.013Z,101820.88
2023-03-05T03:36:59.525Z,101815.63
2023-03-05T03:37:31.637Z,101818.09
2023-03-05T03:38:03.289Z,101820.03
2023-03-05T03:38:34.832Z,101816.88
2023-03-05T03:39:06.346Z,101816.72
2023-03-05T03:39:37.873Z,101818.66
2023-03-05T03:40:11.144Z,101814.94
2023-03-05T03:40:42.711Z,101813.56
2023-03-05T03:41:14.359Z,101816.31
2023-03-05T03:41:50.376Z,101815.34
2023-03-05T03:42:22.870Z,101814.25
2023-03-05T03:42:54.650Z,101811.06
2023-03-05T03:43:26.203Z,101814.25
2023-03-05T03:43:57.803Z,101810.09
2023-03-05T03:44:29.343Z,101809.81
2023-03-05T03:45:02.253Z,101813.97
2023-03-05T03:45:33.950Z,101820.03
2023-03-05T03:46:07.058Z,101816.88
2023-03-05T03:46:40.652Z,101810.78
2023-03-05T03:47:12.244Z,101811.31
2023-03-05T03:47:43.735Z,101807.88
2023-03-05T03:48:15.366Z,101809.53
2023-03-05T03:48:50.212Z,101803.97
2023-03-05T03:49:26.411Z,101813.41
2023-03-05T03:49:58.968Z,101803.59
2023-03-05T03:50:30.653Z,101802.91
2023-03-05T03:51:05.079Z,101804.25
2023-03-05T03:51:36.641Z,101803.28
2023-03-05T03:52:08.610Z,101801.50
2023-03-05T03:52:40.130Z,101807.59
2023-03-05T03:53:14.493Z,101797.88
2023-03-05T03:53:46.100Z,101803.97
2023-03-05T03:54:18.823Z,101803.16
2023-03-05T03:54:52.420Z,101802.59
2023-03-05T03:55:24.061Z,101800.13
2023-03-05T03:55:58.815Z,101798.72
2023-03-05T03:56:30.461Z,101804.13
2023-03-05T03:57:02.003Z,101794.31
2023-03-05T03:57:33.791Z,101796.25
2023-03-05T03:58:05.350Z,101796.81
2023-03-05T03:58:36.889Z,101799.56
2023-03-05T03:59:08.640Z,101798.06
2023-03-05T03:59:40.236Z,101794.16
2023-03-05T04:00:12.332Z,101796.25
2023-03-05T04:00:43.900Z,101790.03
2023-03-05T04:01:15.396Z,101795.69
2023-03-05T04:01:47.858Z,101793.75
2023-03-05T04:02:19.479Z,101784.06
2023-03-05T04:02:51.153Z,101786.28
2023-03-05T04:03:22.760Z,101794.56
2023-03-05T04:03:54.365Z,101793.19
2023-03-05T04:04:26.647Z,101786.81
2023-03-05T04:04:58.516Z,101776.00
2023-03-05T04:05:30.658Z,101792.91
2023-03-05T04:06:02.320Z,101788.19
2023-03-05T04:06:34.517Z,101782.94
2023-03-05T04:07:06.083Z,101783.50
2023-03-05T04:07:37.718Z,101784.63
2023-03-05T04:08:12.084Z,101782.53
2023-03-05T04:08:43.707Z,101778.09
2023-03-05T04:09:15.275Z,101778.78
2023-03-05T04:09:46.817Z,101784.06
2023-03-05T04:10:18.782Z,101779.91
2023-03-05T04:10:50.394Z,101777.00
2023-03-05T04:11:22.141Z,101777.13
2023-03-05T04:11:53.738Z,101777.41
2023-03-05T04:12:25.309Z,101777.13
2023-03-05T04:12:56.903Z,101777.41
2023-03-05T04:13:28.838Z,101770.50
2023-03-05T04:14:00.808Z,101768.56
2023-03-05T04:14:32.422Z,101770.94
2023-03-05T04:15:05.801Z,101771.31
2023-03-05T04:15:37.365Z,101769.78
2023-03-05T04:16:08.987Z,101766.91
2023-03-05T04:16:40.712Z,101765.63
2023-03-05T04:17:12.835Z,101766.31
2023-03-05T04:17:44.492Z,101770.47
2023-03-05T04:18:16.025Z,101768.25
2023-03-05T04:18:47.971Z,101774.06
2023-03-05T04:19:19.549Z,101772.16
2023-03-05T04:19:51.145Z,101765.91
2023-03-05T04:20:22.684Z,101765.91
2023-03-05T04:20:54.244Z,101768.84
2023-03-05T04:21:25.841Z,101766.31
2023-03-05T04:21:58.866Z,101771.72
2023-03-05T04:22:30.438Z,101764.94
2023-03-05T04:23:02.002Z,101769.38
2023-03-05T04:23:33.638Z,101764.13
2023-03-05T04:24:05.788Z,101767.72
2023-03-05T04:24:38.211Z,101763.88
2023-03-05T04:25:10.268Z,101769.97
2023-03-05T04:25:41.843Z,101769.66
2023-03-05T04:26:15.707Z,101769.97
2023-03-05T04:26:47.994Z,101764.41
2023-03-05T04:27:19.533Z,101751.94
2023-03-05T04:27:51.152Z,101757.19
2023-03-05T04:28:22.677Z,101767.88
2023-03-05T04:28:54.208Z,101764.13
2023-03-05T04:29:26.161Z,101763.84
2023-03-05T04:29:57.729Z,101762.59
2023-03-05T04:30:29.325Z,101760.94
2023-03-05T04:31:01.309Z,101757.34
2023-03-05T04:31:32.928Z,101758.84
2023-03-05T04:32:04.899Z,101755.69
2023-03-05T04:32:36.558Z,101760.53
2023-03-05T04:33:08.229Z,101756.38
2023-03-05T04:33:39.807Z,101762.19
2023-03-05T04:34:11.380Z,101761.34
2023-03-05T04:34:42.885Z,101755.78
2023-03-05T04:35:14.515Z,101755.94
2023-03-05T04:35:46.164Z,101755.53
2023-03-05T04:36:17.786Z,101755.00
2023-03-05T04:36:49.412Z,101753.59
2023-03-05T04:37:21.038Z,101756.13
2023-03-05T04:37:52.594Z,101750.72
2023-03-05T04:38:24.175Z,101754.19
2023-03-05T04:38:55.703Z,101757.50
2023-03-05T04:39:27.466Z,101752.09
2023-03-05T04:39:59.023Z,101747.53
2023-03-05T04:40:30.758Z,101748.91
2023-03-05T04:41:02.329Z,101746.97
2023-03-05T04:41:33.929Z,101753.06
2023-03-05T04:42:05.750Z,101751.84
2023-03-05T04:42:37.530Z,101754.03
2023-03-05T04:43:09.056Z,101750.56
2023-03-05T04:43:40.616Z,101750.88
2023-03-05T04:44:12.137Z,101754.47
2023-03-05T04:44:43.692Z,101753.50
2023-03-05T04:45:17.225Z,101751.16
2023-03-05T04:45:48.784Z,101752.53
2023-03-05T04:46:21.075Z,101746.13
2023-03-05T04:46:52.813Z,101748.22
2023-03-05T04:47:24.433Z,101746.84
2023-03-05T04:47:55.997Z,101750.06
2023-03-05T04:48:27.528Z,101755.59
2023-03-05T04:48:59.459Z,101753.66
2023-03-05T04:49:31.028Z,101753.91
2023-03-05T04:50:04.504Z,101746.75
2023-03-05T04:50:36.322Z,101749.78
2023-03-05T04:51:07.843Z,101749.19
2023-03-05T04:51:39.498Z,101752.13
2023-03-05T04:52:12.534Z,101748.81
2023-03-05T04:52:45.514Z,101751.44
2023-03-05T04:53:17.205Z,101748.25
2023-03-05T04:53:48.923Z,101747.44
2023-03-05T04:54:20.510Z,101744.81
2023-03-05T04:54:52.109Z,101751.16
2023-03-05T04:55:23.801Z,101745.34
2023-03-05T04:55:56.058Z,101744.50
2023-03-05T04:56:27.683Z,101745.19
2023-03-05T04:56:59.348Z,101747.84
2023-03-05T04:57:30.858Z,101749.19
2023-03-05T04:58:02.446Z,101744.47
2023-03-05T04:58:33.988Z,101740.91
2023-03-05T04:59:05.484Z,101747.25
2023-03-05T04:59:38.015Z,101740.34
2023-03-05T05:00:14.425Z,101746.13
2023-03-05T05:00:46.214Z,101747.66
2023-03-05T05:01:18.033Z,101741.28
2023-03-05T05:01:49.646Z,101743.09
2023-03-05T05:02:21.241Z,101739.66
2023-03-05T05:02:53.400Z,101738.69
2023-03-05T05:03:24.954Z,101738.53
2023-03-05T05:03:56.635Z,101739.66
2023-03-05T05:04:28.244Z,101742.25
2023-03-05T05:05:00.312Z,101739.63
2023-03-05T05:05:31.870Z,101737.41
2023-03-05T05:06:03.625Z,101736.59
2023-03-05T05:06:36.145Z,101739.75
2023-03-05T05:07:07.854Z,101739.63
2023-03-05T05:07:39.432Z,101737.97
2023-03-05T05:08:11.176Z,101734.94
2023-03-05T05:08:43.436Z,101735.06
2023-03-05T05:09:15.295Z,101732.16
2023-03-05T05:09:46.918Z,101731.34
2023-03-05T05:10:18.536Z,101728.16
2023-03-05T05:11:07.305Z,101736.16
2023-03-05T05:11:40.015Z,101730.63
2023-03-05T05:12:11.577Z,101733.41
2023-03-05T05:12:43.167Z,101729.69
2023-03-05T05:13:14.692Z,101733.13
2023-03-05T05:13:46.324Z,101727.88
2023-03-05T05:14:18.052Z,101725.00
2023-03-05T05:14:49.645Z,101727.63
2023-03-05T05:15:21.540Z,101728.75
2023-03-05T05:15:53.398Z,101729.72
2023-03-05T05:16:25.137Z,101726.38
2023-03-05T05:16:56.891Z,101724.28
2023-03-05T05:17:30.952Z,101728.84
2023-03-05T05:18:02.580Z,101723.88
2023-03-05T05:18:34.117Z,101729.00
2023-03-05T05:19:05.693Z,101729.81
2023-03-05T05:19:37.360Z,101728.31
2023-03-05T05:20:11.752Z,101733.69
2023-03-05T05:20:43.376Z,101724.66
2023-03-05T05:21:15.204Z,101717.75
2023-03-05T05:21:46.888Z,101727.63
2023-03-05T05:22:18.576Z,101725.69
2023-03-05T05:22:50.208Z,101720.41
2023-03-05T05:23:21.983Z,101723.19
2023-03-05T05:23:53.542Z,101718.06
2023-03-05T05:24:25.270Z,101715.00
2023-03-05T05:24:56.883Z,101720.84
2023-03-05T05:25:28.382Z,101720.72
2023-03-05T05:26:01.344Z,101717.53
2023-03-05T05:26:32.912Z,101722.38
2023-03-05T05:27:04.472Z,101719.34
2023-03-05T05:27:36.679Z,101725.13
2023-03-05T05:28:08.210Z,101722.38
2023-03-05T05:28:42.899Z,101718.38
2023-03-05T05:29:14.459Z,101723.47
2023-03-05T05:29:50.180Z,101716.56
2023-03-05T05:30:21.757Z,101713.53
2023-03-05T05:30:54.011Z,101722.66
2023-03-05T05:31:25.794Z,101719.88
2023-03-05T05:31:57.440Z,101716.28
2023-03-05T05:32:29.096Z,101717.38
2023-03-05T05:33:00.752Z,101720.72
2023-03-05T05:33:32.318Z,101719.34
2023-03-05T05:34:03.906Z,101721.00
2023-03-05T05:34:35.442Z,101721.97
2023-03-05T05:35:07.410Z,101715.72
2023-03-05T05:35:39.860Z,101719.88
2023-03-05T05:36:15.345Z,101718.66
2023-03-05T05:36:46.859Z,101719.19
2023-03-05T05:37:18.358Z,101721.56
2023-03-05T05:37:49.915Z,101709.78
2023-03-05T05:38:21.467Z,101719.06
2023-03-05T05:38:53.083Z,101714.06
2023-03-05T05:39:24.728Z,101717.94
2023-03-05T05:39:56.319Z,101719.06
2023-03-05T05:40:27.821Z,101720.03
2023-03-05T05:41:05.155Z,101713.38
2023-03-05T05:41:36.704Z,101711.44
2023-03-05T05:42:08.430Z,101711.44
2023-03-05T05:42:40.089Z,101714.06
2023-03-05T05:43:11.651Z,101715.19
2023-03-05T05:43:43.671Z,101710.63
2023-03-05T05:44:15.190Z,101712.56
2023-03-05T05:44:47.615Z,101708.00
2023-03-05T05:45:19.275Z,101713.38
2023-03-05T05:45:50.930Z,101708.97
2023-03-05T05:46:23.257Z,101712.13
2023-03-05T05:46:54.839Z,101706.88
2023-03-05T05:47:26.562Z,101712.13
2023-03-05T05:47:58.549Z,101714.06
2023-03-05T05:48:31.391Z,101714.38
2023-03-05T05:49:02.968Z,101712.13
2023-03-05T05:49:34.564Z,101712.13
2023-03-05T05:50:07.779Z,101712.28
2023-03-05T05:50:39.658Z,101713.25
2023-03-05T05:51:20.241Z,101711.84
2023-03-05T05:51:51.778Z,101713.09
2023-03-05T05:52:23.356Z,101716.84
2023-03-05T05:52:54.910Z,101709.94
2023-03-05T05:53:26.575Z,101716.41
2023-03-05T05:53:58.110Z,101721.53
2023-03-05T05:54:29.649Z,101711.84
2023-03-05T05:55:01.240Z,101715.88
2023-03-05T05:55:32.775Z,101710.19
2023-03-05T05:56:05.999Z,101718.22
2023-03-05T05:56:37.578Z,101716.16
2023-03-05T05:57:09.328Z,101713.53
2023-03-05T05:57:41.014Z,101712.69
2023-03-05T05:58:12.600Z,101713.25
2023-03-05T05:58:47.130Z,101715.72
2023-03-05T05:59:18.786Z,101715.72
2023-03-05T05:59:50.366Z,101717.94
2023-03-05T06:00:22.281Z,101711.16
2023-03-05T06:00:53.806Z,101718.50
2023-03-05T06:01:28.299Z,101706.59
2023-03-05T06:02:00.217Z,101712.97
2023-03-05T06:02:31.909Z,101710.19
2023-03-05T06:03:04.138Z,101718.50
2023-03-05T06:03:35.761Z,101708.38
2023-03-05T06:04:07.468Z,101710.91
2023-03-05T06:04:40.284Z,101714.63
2023-03-05T06:05:13.429Z,101713.25
2023-03-05T06:05:44.989Z,101711.44
2023-03-05T06:06:18.658Z,101708.53
2023-03-05T06:06:50.273Z,101708.53
2023-03-05T06:07:21.776Z,101708.00
2023-03-05T06:07:53.499Z,101711.59
2023-03-05T06:08:25.023Z,101707.31
2023-03-05T06:08:56.655Z,101708.28
2023-03-05T06:09:28.193Z,101712.16
2023-03-05T06:09:59.710Z,101705.50
2023-03-05T06:10:31.235Z,101716.03
2023-03-05T06:11:02.768Z,101710.91